createdAt,value
2018-04-15T00:01:51.274Z,101116.78
2018-04-15T00:04:18.925Z,101124.73
2018-04-15T00:06:46.911Z,101118.59
2018-04-15T00:09:17.010Z,101115.13
2018-04-15T00:11:44.563Z,101123.88
2018-04-15T00:14:12.113Z,101118.61
2018-04-15T00:16:39.716Z,101108.98
2018-04-15T00:19:08.484Z,101116.78
2018-04-15T00:21:38.145Z,101117.55
2018-04-15T00:24:06.771Z,101119.28
2018-04-15T00:26:37.180Z,101122.70
2018-04-15T00:29:04.741Z,101112.25
2018-04-15T00:31:32.255Z,101109.16
2018-04-15T00:33:59.809Z,101116.11
2018-04-15T00:36:27.439Z,101114.35
2018-04-15T00:38:55.073Z,101114.33
2018-04-15T00:41:22.863Z,101117.81
2018-04-15T00:43:50.747Z,101114.75
2018-04-15T00:46:18.331Z,101114.30
2018-04-15T00:48:45.899Z,101105.52
2018-04-15T00:51:13.461Z,101108.98
2018-04-15T00:53:52.840Z,101105.95
2018-04-15T00:56:22.875Z,101099.80
2018-04-15T00:58:51.284Z,101090.22
2018-04-15T01:01:21.887Z,101092.28
2018-04-15T01:03:49.440Z,101091.89
2018-04-15T01:06:17.812Z,101088.86
2018-04-15T01:08:45.379Z,101087.56
2018-04-15T01:11:13.008Z,101090.11
2018-04-15T01:13:43.096Z,101089.73
2018-04-15T01:16:10.813Z,101094.13
2018-04-15T01:18:39.257Z,101086.39
2018-04-15T01:21:06.805Z,101076.33
2018-04-15T01:23:34.350Z,101076.84
2018-04-15T01:26:01.979Z,101076.86
2018-04-15T01:28:29.637Z,101072.07
2018-04-15T01:30:58.215Z,101076.44
2018-04-15T01:33:29.952Z,101072.59
2018-04-15T01:36:02.252Z,101076.55
2018-04-15T01:38:29.803Z,101072.75
2018-04-15T01:40:57.443Z,101068.38
2018-04-15T01:43:25.024Z,101061.44
2018-04-15T01:45:52.696Z,101063.22
2018-04-15T01:48:22.112Z,101066.25
2018-04-15T01:50:50.694Z,101055.83
2018-04-15T01:53:19.056Z,101064.63
2018-04-15T01:55:46.627Z,101059.42
2018-04-15T01:58:14.147Z,101053.36
2018-04-15T02:00:41.701Z,101055.11
2018-04-15T02:03:09.635Z,101046.07
2018-04-15T02:05:42.119Z,101053.09
2018-04-15T02:08:13.155Z,101034.45
2018-04-15T02:10:45.161Z,101035.41
2018-04-15T02:13:12.703Z,101035.04
2018-04-15T02:15:40.226Z,101034.27
2018-04-15T02:18:08.023Z,101022.11
2018-04-15T02:20:37.460Z,101022.59
2018-04-15T02:23:09.232Z,101010.07
2018-04-15T02:25:37.411Z,100998.88
2018-04-15T02:28:07.011Z,100994.55
2018-04-15T02:30:34.607Z,100994.97
2018-04-15T02:33:02.156Z,100994.97
2018-04-15T02:35:29.794Z,100984.48
2018-04-15T02:37:58.484Z,100978.39
2018-04-15T02:40:29.133Z,100969.36
2018-04-15T02:43:01.415Z,100965.42
2018-04-15T02:45:30.376Z,100963.80
2018-04-15T02:47:57.941Z,100959.50
2018-04-15T02:50:25.501Z,100958.19
2018-04-15T02:52:53.035Z,100953.44
2018-04-15T02:55:23.227Z,100944.28
2018-04-15T02:57:51.041Z,100948.17
2018-04-15T03:00:18.771Z,100944.20
2018-04-15T03:02:49.347Z,100935.53
2018-04-15T03:05:16.875Z,100928.63
2018-04-15T03:07:44.452Z,100922.98
2018-04-15T03:10:12.024Z,100910.86
2018-04-15T03:12:41.455Z,100917.34
2018-04-15T03:15:10.149Z,100920.01
2018-04-15T03:17:41.493Z,100936.04
2018-04-15T03:20:13.159Z,100928.66
2018-04-15T03:22:40.684Z,100916.41
2018-04-15T03:25:08.236Z,100920.80
2018-04-15T03:27:35.787Z,100911.28
2018-04-15T03:30:05.325Z,100906.52
2018-04-15T03:32:37.424Z,100904.80
2018-04-15T03:35:06.001Z,100900.91
2018-04-15T03:37:39.126Z,100896.61
2018-04-15T03:40:06.695Z,100897.43
2018-04-15T03:42:34.260Z,100903.06
2018-04-15T03:45:01.810Z,100909.64
2018-04-15T03:47:30.577Z,100914.80
2018-04-15T03:49:59.245Z,100913.55
2018-04-15T03:52:29.605Z,100903.58
2018-04-15T03:55:02.178Z,100897.91
2018-04-15T03:57:29.821Z,100900.52
2018-04-15T03:59:57.369Z,100901.00
2018-04-15T04:02:25.029Z,100905.36
2018-04-15T04:04:55.196Z,100904.15
2018-04-15T04:07:22.849Z,100887.20
2018-04-15T04:09:50.813Z,100892.88
2018-04-15T04:12:18.347Z,100891.59
2018-04-15T04:14:45.879Z,100885.95
2018-04-15T04:17:13.419Z,100885.93
2018-04-15T04:19:52.829Z,100883.80
2018-04-15T04:22:33.644Z,100880.38
2018-04-15T04:25:26.886Z,100879.50
2018-04-15T04:27:57.141Z,100880.38
2018-04-15T04:30:24.727Z,100887.27
2018-04-15T04:32:52.267Z,100886.02
2018-04-15T04:35:19.948Z,100879.90
2018-04-15T04:37:47.612Z,100873.44
2018-04-15T04:40:15.270Z,100864.75
2018-04-15T04:42:42.996Z,100851.72
2018-04-15T04:45:14.137Z,100860.02
2018-04-15T04:47:41.764Z,100849.14
2018-04-15T04:50:09.299Z,100849.59
2018-04-15T04:52:36.830Z,100838.72
2018-04-15T04:55:04.713Z,100833.98
2018-04-15T05:00:30.845Z,100827.53
2018-04-15T05:02:59.114Z,100820.20
2018-04-15T05:05:26.707Z,100820.65
2018-04-15T05:07:54.295Z,100818.53
2018-04-15T05:10:21.844Z,100806.86
2018-04-15T05:12:50.265Z,100797.77
2018-04-15T05:15:19.420Z,100787.86
2018-04-15T05:17:50.216Z,100791.77
2018-04-15T05:20:21.447Z,100783.98
2018-04-15T05:22:49.023Z,100786.19
2018-04-15T05:25:16.558Z,100778.44
2018-04-15T05:27:44.095Z,100788.41
2018-04-15T05:30:12.002Z,100796.25
2018-04-15T05:35:14.280Z,100784.55
2018-04-15T05:37:43.008Z,100785.83
2018-04-15T05:40:10.575Z,100783.19
2018-04-15T05:42:38.214Z,100782.70
2018-04-15T05:45:05.753Z,100781.38
2018-04-15T05:47:35.118Z,100776.14
2018-04-15T05:50:02.872Z,100773.50
2018-04-15T05:52:31.420Z,100770.84
2018-04-15T05:55:02.497Z,100772.56
2018-04-15T05:57:30.067Z,100768.23
2018-04-15T05:59:57.612Z,100768.20
2018-04-15T06:02:25.235Z,100763.81
2018-04-15T06:04:54.763Z,100752.91
2018-04-15T06:07:25.423Z,100759.42
2018-04-15T06:09:54.306Z,100758.97
2018-04-15T06:12:26.411Z,100751.09
2018-04-15T06:14:54.122Z,100748.37
2018-04-15T06:17:21.693Z,100744.82
2018-04-15T06:19:49.250Z,100736.55
2018-04-15T06:22:22.236Z,100743.43
2018-04-15T06:24:53.343Z,100739.86
2018-04-15T06:27:27.415Z,100741.91
2018-04-15T06:30:00.504Z,100739.13
2018-04-15T06:32:28.064Z,100741.16
2018-04-15T06:34:55.684Z,100743.23
2018-04-15T06:37:23.349Z,100740.50
2018-04-15T06:39:51.008Z,100740.38
2018-04-15T06:42:21.508Z,100741.63
2018-04-15T06:44:50.622Z,100731.09
2018-04-15T06:47:18.207Z,100731.05
2018-04-15T06:49:45.984Z,100730.95
2018-04-15T06:52:13.547Z,100722.64
2018-04-15T06:54:41.165Z,100732.95
2018-04-15T06:57:18.331Z,100727.28
2018-04-15T07:02:19.461Z,100713.67
2018-04-15T07:04:48.102Z,100717.91
2018-04-15T07:07:25.744Z,100712.59
2018-04-15T07:24:50.390Z,100692.58
2018-04-15T07:27:18.283Z,100690.84
2018-04-15T07:39:01.880Z,100682.27
2018-04-15T07:41:29.548Z,100679.66
2018-04-15T07:43:57.102Z,100674.42
2018-04-15T07:55:46.620Z,100670.98
2018-04-15T07:58:14.189Z,100663.91
2018-04-15T08:00:41.821Z,100654.22
2018-04-15T08:03:09.399Z,100658.50
2018-04-15T08:05:37.176Z,100656.73
2018-04-15T08:08:04.845Z,100650.16
2018-04-15T08:10:32.479Z,100652.73
2018-04-15T08:13:00.018Z,100649.27
2018-04-15T08:15:27.562Z,100651.03
2018-04-15T08:17:55.081Z,100656.31
2018-04-15T08:20:22.601Z,100654.16
2018-04-15T08:22:51.455Z,100644.16
2018-04-15T08:25:19.033Z,100637.60
2018-04-15T08:27:49.834Z,100642.69
2018-04-15T08:30:17.360Z,100636.40
2018-04-15T08:32:44.907Z,100633.98
2018-04-15T08:35:12.439Z,100627.11
2018-04-15T08:37:40.077Z,100626.87
2018-04-15T08:40:07.619Z,100625.31
2018-04-15T08:42:37.127Z,100625.05
2018-04-15T08:45:06.118Z,100617.83
2018-04-15T08:47:33.658Z,100617.05
2018-04-15T08:50:01.202Z,100611.06
2018-04-15T08:52:28.715Z,100610.02
2018-04-15T08:54:56.275Z,100609.67
2018-04-15T08:57:26.971Z,100609.79
2018-04-15T08:59:57.511Z,100606.94
2018-04-15T09:04:57.227Z,100604.07
2018-04-15T09:07:24.783Z,100597.23
2018-04-15T09:09:52.324Z,100593.60
2018-04-15T09:12:20.726Z,100591.13
2018-04-15T09:17:22.445Z,100576.97
2018-04-15T09:19:54.175Z,100577.53
2018-04-15T09:22:21.753Z,100574.55
2018-04-15T09:24:49.293Z,100572.50
2018-04-15T09:27:16.817Z,100564.62
2018-04-15T09:29:44.548Z,100573.48
2018-04-15T09:32:12.234Z,100575.94
2018-04-15T09:34:40.982Z,100577.14
2018-04-15T09:37:09.554Z,100578.55
2018-04-15T09:39:37.050Z,100576.36
2018-04-15T09:42:04.584Z,100573.33
2018-04-15T09:44:32.255Z,100568.59
2018-04-15T09:46:59.887Z,100569.13
2018-04-15T09:49:27.514Z,100570.12
2018-04-15T09:51:55.130Z,100564.12
2018-04-15T09:54:22.679Z,100557.55
2018-04-15T09:56:50.233Z,100552.32
2018-04-15T09:59:17.787Z,100558.05
2018-04-15T10:01:45.327Z,100547.98
2018-04-15T10:04:12.877Z,100543.45
2018-04-15T10:06:44.684Z,100539.20
2018-04-15T10:09:12.424Z,100540.43
2018-04-15T10:11:40.056Z,100541.03
2018-04-15T10:14:07.627Z,100539.21
2018-04-15T10:16:35.168Z,100531.45
2018-04-15T10:19:02.707Z,100533.39
2018-04-15T10:21:30.284Z,100533.27
2018-04-15T10:23:57.959Z,100533.97
2018-04-15T10:26:25.519Z,100529.91
2018-04-15T10:28:53.078Z,100526.69
2018-04-15T10:31:20.610Z,100520.48
2018-04-15T10:33:49.463Z,100520.77
2018-04-15T10:36:16.970Z,100523.58
2018-04-15T10:38:44.524Z,100522.48
2018-04-15T10:44:11.475Z,100506.27
2018-04-15T10:46:39.023Z,100508.44
2018-04-15T10:49:06.569Z,100502.30
2018-04-15T10:51:34.166Z,100496.70
2018-04-15T10:54:01.703Z,100493.93
2018-04-15T10:56:29.464Z,100495.94
2018-04-15T10:58:57.054Z,100501.08
2018-04-15T11:01:24.619Z,100493.39
2018-04-15T11:03:52.189Z,100497.97
2018-04-15T11:06:19.722Z,100495.22
2018-04-15T11:08:47.252Z,100487.52
2018-04-15T11:11:15.501Z,100485.70
2018-04-15T11:13:43.039Z,100486.97
2018-04-15T11:16:10.659Z,100490.80
2018-04-15T11:18:38.279Z,100476.22
2018-04-15T11:21:05.869Z,100483.72
2018-04-15T11:23:34.199Z,100486.28
2018-04-15T11:26:01.739Z,100481.42
2018-04-15T11:28:29.251Z,100477.69
2018-04-15T11:30:56.775Z,100481.61
2018-04-15T11:33:24.324Z,100480.08
2018-04-15T11:35:58.088Z,100468.92
2018-04-15T11:38:30.041Z,100465.98
2018-04-15T11:40:57.662Z,100465.66
2018-04-15T11:43:25.161Z,100456.19
2018-04-15T11:45:52.641Z,100455.97
2018-04-15T11:48:20.162Z,100452.65
2018-04-15T11:50:49.330Z,100447.97
2018-04-15T11:53:19.431Z,100450.02
2018-04-15T11:55:46.978Z,100443.81
2018-04-15T11:58:16.761Z,100451.25
2018-04-15T12:00:44.263Z,100448.94
2018-04-15T12:03:11.769Z,100442.88
2018-04-15T12:05:39.266Z,100444.33
2018-04-15T12:08:09.437Z,100435.55
2018-04-15T12:13:19.597Z,100429.08
2018-04-15T12:15:48.279Z,100437.28
2018-04-15T12:18:15.789Z,100431.68
2018-04-15T12:20:43.250Z,100431.30
2018-04-15T12:23:10.758Z,100438.58
2018-04-15T12:25:39.528Z,100439.70
2018-04-15T12:33:33.838Z,100448.38
2018-04-15T12:36:01.302Z,100447.97
2018-04-15T12:38:28.795Z,100440.52
2018-04-15T12:40:56.294Z,100441.95
2018-04-15T12:46:07.270Z,100437.02
2018-04-15T12:51:16.126Z,100443.86
2018-04-15T12:53:43.631Z,100442.97
2018-04-15T12:56:11.165Z,100442.41
2018-04-15T12:58:40.507Z,100443.16
2018-04-15T13:09:14.274Z,100450.08
2018-04-15T13:11:41.836Z,100449.28
2018-04-15T13:14:09.311Z,100458.50
2018-04-15T13:16:37.870Z,100450.63
2018-04-15T13:27:26.578Z,100447.92
2018-04-15T13:29:54.130Z,100447.73
2018-04-15T13:32:21.684Z,100443.49
2018-04-15T13:37:34.634Z,100451.98
2018-04-15T13:42:37.239Z,100453.58
2018-04-15T13:45:04.792Z,100450.50
2018-04-15T13:47:32.360Z,100450.87
2018-04-15T13:49:59.939Z,100441.04
2018-04-15T13:52:29.736Z,100425.78
2018-04-15T13:55:01.551Z,100424.06
2018-04-15T14:00:08.383Z,100422.32
2018-04-15T14:02:35.926Z,100419.27
2018-04-15T14:05:03.451Z,100413.53
2018-04-15T14:07:31.104Z,100413.05
2018-04-15T14:12:34.770Z,100399.23
2018-04-15T14:17:37.769Z,100396.40
2018-04-15T14:20:05.352Z,100393.90
2018-04-15T14:22:32.922Z,100397.19
2018-04-15T14:25:01.741Z,100404.34
2018-04-15T14:27:34.758Z,100397.92
2018-04-15T14:30:06.288Z,100399.48
2018-04-15T14:32:38.376Z,100399.91
2018-04-15T14:35:05.987Z,100396.87
2018-04-15T14:37:33.543Z,100396.64
2018-04-15T14:40:01.088Z,100394.20
2018-04-15T14:42:31.182Z,100391.12
2018-04-15T14:52:52.740Z,100398.10
2018-04-15T14:55:20.285Z,100392.03
2018-04-15T14:57:47.920Z,100384.59
2018-04-15T15:00:17.503Z,100386.81
2018-04-15T15:08:08.250Z,100393.94
2018-04-15T15:10:35.807Z,100393.21
2018-04-15T15:13:03.321Z,100392.81
2018-04-15T15:15:30.992Z,100402.50
2018-04-15T15:20:51.339Z,100410.66
2018-04-15T15:26:06.530Z,100400.16
2018-04-15T15:28:34.012Z,100398.91
2018-04-15T15:31:01.508Z,100393.73
2018-04-15T15:33:29.002Z,100384.52
2018-04-15T15:35:58.535Z,100386.06
2018-04-15T15:38:27.004Z,100371.31
2018-04-15T15:40:55.535Z,100373.55
2018-04-15T15:43:23.711Z,100375.46
2018-04-15T15:45:51.220Z,100367.72
2018-04-15T15:48:18.704Z,100377.34
2018-04-15T15:50:46.246Z,100373.76
2018-04-15T15:53:17.978Z,100375.11
2018-04-15T15:55:49.844Z,100378.19
2018-04-15T15:58:18.352Z,100376.98
2018-04-15T16:00:45.851Z,100381.64
2018-04-15T16:03:13.321Z,100380.34
2018-04-15T16:05:40.815Z,100382.27
2018-04-15T16:08:08.421Z,100397.09
2018-04-15T16:13:37.168Z,100426.53
2018-04-15T16:18:50.620Z,100436.54
2018-04-15T16:21:19.508Z,100446.97
2018-04-15T16:23:47.072Z,100442.62
2018-04-15T16:29:10.641Z,100447.25
2018-04-15T16:31:39.641Z,100443.20
2018-04-15T16:34:09.701Z,100443.86
2018-04-15T16:36:37.323Z,100443.94
2018-04-15T16:39:05.469Z,100442.75
2018-04-15T16:41:32.991Z,100445.28
2018-04-15T16:44:00.570Z,100445.78
2018-04-15T16:46:28.167Z,100441.08
2018-04-15T16:48:58.772Z,100448.45
2018-04-15T16:51:45.227Z,100442.88
2018-04-15T16:54:12.716Z,100446.82
2018-04-15T16:56:40.255Z,100451.59
2018-04-15T16:59:07.772Z,100459.30
2018-04-15T17:10:13.110Z,100456.77
2018-04-15T17:12:40.614Z,100456.83
2018-04-15T17:15:08.137Z,100463.63
2018-04-15T17:17:35.686Z,100459.39
2018-04-15T17:28:29.067Z,100477.00
2018-04-15T17:30:56.566Z,100479.60
2018-04-15T17:33:24.063Z,100477.37
2018-04-15T17:35:54.475Z,100482.59
2018-04-15T17:38:26.341Z,100483.86
2018-04-15T17:40:55.719Z,100489.13
2018-04-15T17:43:23.640Z,100507.94
2018-04-15T17:45:51.134Z,100500.02
2018-04-15T17:48:18.647Z,100507.94
2018-04-15T17:50:46.130Z,100501.41
2018-04-15T17:53:18.404Z,100502.91
2018-04-15T17:55:47.135Z,100519.49
2018-04-15T18:00:49.768Z,100516.48
2018-04-15T18:03:17.265Z,100519.09
2018-04-15T18:05:44.758Z,100525.55
2018-04-15T18:08:12.254Z,100528.78
2018-04-15T18:19:12.942Z,100539.13
2018-04-15T18:21:40.440Z,100544.44
2018-04-15T18:24:07.998Z,100550.98
2018-04-15T18:26:35.474Z,100546.08
2018-04-15T18:37:25.902Z,100555.34
2018-04-15T18:39:53.391Z,100559.39
2018-04-15T18:42:20.882Z,100567.34
2018-04-15T18:44:48.879Z,100574.58
2018-04-15T18:56:13.503Z,100584.64
2018-04-15T18:58:41.002Z,100588.27
2018-04-15T19:01:08.487Z,100604.08
2018-04-15T19:12:17.270Z,100610.97
2018-04-15T19:14:44.757Z,100621.45
2018-04-15T19:17:12.270Z,100616.83
2018-04-15T19:28:40.822Z,100637.74
2018-04-15T19:31:08.325Z,100640.42
2018-04-15T19:33:35.831Z,100643.42
2018-04-15T19:36:03.370Z,100640.84
2018-04-15T19:47:07.814Z,100649.50
2018-04-15T19:49:35.326Z,100661.48
2018-04-15T19:52:02.836Z,100655.41
2018-04-15T19:54:30.342Z,100654.49
2018-04-15T20:05:35.421Z,100662.52
2018-04-15T20:08:02.945Z,100663.36
2018-04-15T20:10:30.426Z,100675.08
2018-04-15T20:21:35.851Z,100682.31
2018-04-15T20:24:03.347Z,100689.89
2018-04-15T20:26:30.842Z,100690.90
2018-04-15T20:28:58.335Z,100692.23
2018-04-15T20:34:41.348Z,100690.83
2018-04-15T20:40:03.814Z,100696.55
2018-04-15T20:42:31.324Z,100704.41
2018-04-15T20:44:58.830Z,100707.90
2018-04-15T20:56:04.214Z,100711.61
2018-04-15T20:58:31.699Z,100703.39
2018-04-15T21:00:59.211Z,100709.10
2018-04-15T21:03:26.719Z,100711.22
2018-04-15T21:14:52.202Z,100718.78
2018-04-15T21:17:19.726Z,100723.25
2018-04-15T21:19:47.258Z,100727.16
2018-04-15T21:30:52.814Z,100734.33
2018-04-15T21:33:20.290Z,100734.88
2018-04-15T21:35:47.795Z,100735.98
2018-04-15T21:50:30.143Z,100747.28
2018-04-15T21:52:57.683Z,100767.44
2018-04-15T22:04:13.360Z,100766.34
2018-04-15T22:06:40.850Z,100769.35
2018-04-15T22:09:08.350Z,100767.47
2018-04-15T22:23:17.538Z,100781.75
2018-04-15T22:25:45.017Z,100780.39
2018-04-15T22:28:12.517Z,100781.36
2018-04-15T22:39:18.566Z,100795.58
2018-04-15T22:41:46.178Z,100808.13
2018-04-15T22:44:13.646Z,100800.82
2018-04-15T22:46:41.142Z,100802.95
